Time;durP1;ratioP1;P1;durP2;ratioP2;P2;SDS_P1;SDS_P2;PMS_P1;PMS_P2;Temp;Humidity;BMP_temperature;BMP_pressure;BME280_temperature;BME280_humidity;BME280_pressure;Samples;Min_cycle;Max_cycle;Signal;HPM_P1;HPM_P2
2022/01/17 00:01:42;;;;;;;15.57;11.93;;;4.90;1.00;5.40;101787.00;;;;5019361;28;20991;-85
2022/01/17 00:04:12;;;;;;;16.80;14.20;;;4.90;1.00;5.40;101810.00;;;;5019143;28;20544;-81
2022/01/17 00:06:43;;;;;;;14.20;11.70;;;4.90;1.00;217.30;159012.00;;;;5019004;28;20831;-80
2022/01/17 00:09:12;;;;;;;13.90;11.63;;;5.00;1.00;5.40;101802.00;;;;5019557;28;20465;-80
2022/01/17 00:11:44;;;;;;;14.60;13.00;;;5.10;1.00;5.40;101805.00;;;;5019293;28;20507;-81
2022/01/17 00:14:16;;;;;;;14.57;11.97;;;5.00;1.00;5.40;67449.00;;;;5022986;28;20449;-81
2022/01/17 00:16:51;;;;;;;14.20;11.30;;;5.10;1.00;5.40;67449.00;;;;5016507;28;20828;-83
2022/01/17 00:19:36;;;;;;;13.73;12.20;;;5.00;1.00;5.40;67457.00;;;;5036452;28;20490;-80
2022/01/17 00:22:05;;;;;;;14.00;10.10;;;4.90;1.00;5.40;101783.00;;;;5023226;28;20476;-81
2022/01/17 00:24:33;;;;;;;14.63;12.30;;;4.90;1.00;5.40;67453.00;;;;5027361;28;20465;-81
2022/01/17 00:27:01;;;;;;;14.80;12.40;;;5.00;1.00;5.40;101810.00;;;;5029617;28;20489;-80
2022/01/17 00:29:30;;;;;;;17.47;13.50;;;5.00;1.00;5.50;67474.00;;;;5034540;28;20460;-80
2022/01/17 00:31:59;;;;;;;14.97;13.23;;;5.30;1.00;52.70;159054.00;;;;5018008;28;20495;-81
2022/01/17 00:34:28;;;;;;;13.73;10.90;;;5.10;1.00;5.60;101825.00;;;;5032652;28;20448;-82
2022/01/17 00:36:56;;;;;;;12.70;11.13;;;5.10;1.00;5.60;101836.00;;;;5036678;28;20785;-80
2022/01/17 00:39:25;;;;;;;14.83;12.83;;;5.10;1.00;217.30;159076.00;;;;5022429;28;20456;-80
2022/01/17 00:41:53;;;;;;;15.97;13.53;;;5.10;1.00;5.60;101825.00;;;;5020662;28;20473;-81
2022/01/17 00:44:23;;;;;;;14.40;12.80;;;5.10;1.00;5.60;101823.00;;;;5018266;28;20465;-81
2022/01/17 00:46:52;;;;;;;14.40;12.60;;;5.20;1.00;5.60;101823.00;;;;5027024;28;20473;-82
2022/01/17 00:49:22;;;;;;;16.07;12.63;;;5.20;1.00;217.30;159092.00;;;;5019246;28;20461;-82
2022/01/17 00:51:50;;;;;;;17.40;13.83;;;5.20;1.00;5.60;101823.00;;;;5020051;28;20841;-82
2022/01/17 00:54:19;;;;;;;17.17;12.97;;;5.20;1.00;5.60;67487.00;;;;5019012;28;20540;-80
2022/01/17 00:56:47;;;;;;;15.80;13.57;;;5.10;1.00;5.50;101810.00;;;;5021134;28;20465;-80
2022/01/17 00:59:16;;;;;;;15.20;12.33;;;5.00;1.00;5.50;67469.00;;;;5020474;28;20458;-81
2022/01/17 01:01:44;;;;;;;17.70;13.23;;;5.00;1.00;5.40;67460.00;;;;5024543;28;20469;-81
2022/01/17 01:04:13;;;;;;;16.30;13.47;;;4.90;1.00;5.30;101789.00;;;;5022005;28;20449;-82
2022/01/17 01:06:42;;;;;;;15.87;12.70;;;4.90;1.00;217.30;158915.00;;;;5028962;28;20476;-80
2022/01/17 01:09:11;;;;;;;17.57;13.23;;;4.80;1.00;5.20;67407.00;;;;5021529;28;21051;-80
2022/01/17 01:11:39;;;;;;;15.30;12.80;;;4.70;1.00;5.10;67390.00;;;;5038263;28;20591;-82
2022/01/17 01:14:08;;;;;;;15.47;12.73;;;4.70;1.00;5.10;101794.00;;;;5020736;28;20460;-79
2022/01/17 01:16:37;;;;;;;16.70;14.60;;;4.60;1.00;5.10;101810.00;;;;5039154;28;20456;-82
2022/01/17 01:27:39;;;;;;;17.20;14.00;;;4.60;1.00;5.10;101838.00;;;;5021064;28;20500;-83
2022/01/17 01:27:55;;;;;;;15.70;13.47;;;4.60;1.00;5.10;101862.00;;;;5023244;28;20471;-81
2022/01/17 01:30:27;;;;;;;19.50;16.03;;;4.70;1.00;5.00;101855.00;;;;5022333;28;20819;-82
2022/01/17 01:32:58;;;;;;;17.67;15.10;;;4.50;1.00;5.00;101861.00;;;;5021951;28;20491;-80
2022/01/17 01:35:29;;;;;;;17.87;14.40;;;4.50;1.00;5.10;101877.00;;;;5022565;28;20460;-80
2022/01/17 01:38:00;;;;;;;17.10;14.20;;;4.50;1.00;5.10;101880.00;;;;5020139;28;20465;-81
2022/01/17 01:40:29;;;;;;;17.50;13.20;;;4.60;1.00;5.20;101865.00;;;;5025227;28;20559;-80
2022/01/17 01:42:57;;;;;;;18.10;14.40;;;4.70;1.00;5.30;101880.00;;;;5020616;28;20515;-80
2022/01/17 01:45:27;;;;;;;18.10;14.10;;;4.70;1.00;5.30;101885.00;;;;5019641;28;20457;-82
2022/01/17 01:47:56;;;;;;;20.00;14.33;;;4.80;1.00;5.30;67438.00;;;;5019385;28;20457;-80
2022/01/17 01:50:24;;;;;;;18.20;14.37;;;4.90;1.00;5.40;67449.00;;;;5034289;28;20974;-81
2022/01/17 01:52:53;;;;;;;19.70;15.00;;;5.00;1.00;5.40;67449.00;;;;5019451;28;20965;-81
2022/01/17 01:55:22;;;;;;;17.57;13.97;;;4.90;1.00;5.40;101889.00;;;;5020193;28;20463;-82
2022/01/17 01:57:51;;;;;;;18.53;15.03;;;5.20;1.00;5.50;101871.00;;;;5019599;28;20519;-83
2022/01/17 02:00:20;;;;;;;18.43;13.90;;;5.00;1.00;5.40;67457.00;;;;5021915;28;20446;-82
2022/01/17 02:02:49;;;;;;;18.57;14.67;;;5.00;1.00;5.50;101865.00;;;;5020418;28;20466;-82
2022/01/17 02:05:18;;;;;;;19.17;14.80;;;5.00;1.00;217.30;159012.00;;;;5021126;28;20524;-81
2022/01/17 02:07:46;;;;;;;16.50;14.00;;;5.00;1.00;5.40;101858.00;;;;5029510;28;20465;-82
2022/01/17 02:10:15;;;;;;;19.43;15.40;;;5.00;1.00;5.40;101854.00;;;;5036786;28;20464;-82
2022/01/17 02:12:45;;;;;;;20.23;14.87;;;4.90;1.00;5.40;101843.00;;;;5019821;28;21500;-82
2022/01/17 02:15:17;;;;;;;18.73;14.33;;;4.90;1.00;5.30;101848.00;;;;5020658;28;20456;-81
2022/01/17 02:17:54;;;;;;;18.60;15.10;;;4.90;1.00;5.30;101853.00;;;;5037089;28;21575;-82
2022/01/17 02:20:29;;;;;;;18.27;14.20;;;4.90;1.00;5.30;101865.00;;;;5020667;28;20457;-81
2022/01/17 02:22:57;;;;;;;21.00;15.40;;;4.90;1.00;5.30;101846.00;;;;5036936;28;20461;-82
2022/01/17 02:25:25;;;;;;;17.50;14.20;;;4.80;1.00;5.40;67438.00;;;;5021192;28;20467;-82
2022/01/17 02:27:53;;;;;;;18.20;13.73;;;4.80;1.00;5.40;67446.00;;;;5029931;28;20468;-82
2022/01/17 02:30:23;;;;;;;16.77;14.00;;;4.90;1.00;5.30;67427.00;;;;5031779;28;20467;-82
2022/01/17 02:32:51;;;;;;;17.50;13.17;;;4.80;1.00;5.20;101823.00;;;;5035341;28;20476;-82
2022/01/17 02:35:24;;;;;;;18.23;14.10;;;4.80;1.00;5.20;101830.00;;;;5029908;28;20468;-82
2022/01/17 02:37:53;;;;;;;17.40;13.60;;;4.70;1.00;5.20;101824.00;;;;5031542;28;20452;-83
2022/01/17 02:40:23;;;;;;;18.00;13.50;;;4.70;1.00;5.20;101827.00;;;;5027771;28;20456;-82
2022/01/17 02:42:56;;;;;;;16.37;13.43;;;4.70;1.00;5.10;101825.00;;;;5023078;28;20468;-82
2022/01/17 02:45:35;;;;;;;17.80;13.40;;;4.70;1.00;5.20;101847.00;;;;5026175;28;20464;-82
2022/01/17 02:48:07;;;;;;;19.00;15.20;;;4.70;1.00;5.20;101848.00;;;;5040921;28;20568;-81
2022/01/17 02:50:39;;;;;;;19.20;14.47;;;4.70;1.00;5.20;101852.00;;;;5023446;28;20815;-80
2022/01/17 02:53:09;;;;;;;20.20;14.97;;;4.70;1.00;5.20;101856.00;;;;5021253;28;20473;-80
2022/01/17 02:55:39;;;;;;;18.60;13.63;;;4.70;1.00;5.10;101842.00;;;;5021194;28;20571;-81
2022/01/17 02:58:07;;;;;;;18.40;14.33;;;4.70;1.00;5.10;101834.00;;;;5022899;28;20460;-81
2022/01/17 03:00:36;;;;;;;16.80;13.87;;;4.70;1.00;5.10;101834.00;;;;5020301;28;20992;-82
2022/01/17 03:03:04;;;;;;;16.90;13.90;;;4.60;1.00;5.10;101821.00;;;;5020185;28;21044;-81
2022/01/17 03:05:33;;;;;;;18.23;13.90;;;4.70;1.00;5.20;101848.00;;;;5022912;28;20454;-83
2022/01/17 03:08:04;;;;;;;18.27;13.90;;;4.80;1.00;5.30;67414.00;;;;5025905;28;20472;-81
2022/01/17 03:10:39;;;;;;;16.57;13.43;;;4.80;1.00;5.30;101828.00;;;;5039322;28;20433;-84
2022/01/17 03:13:10;;;;;;;16.73;13.03;;;4.80;1.00;5.30;101832.00;;;;5049005;28;20530;-82
2022/01/17 03:15:39;;;;;;;17.70;13.67;;;4.80;1.00;5.40;101825.00;;;;5042734;28;21012;-81
2022/01/17 03:18:07;;;;;;;17.87;13.43;;;4.90;1.00;5.40;101800.00;;;;5021664;28;20466;-82
2022/01/17 03:20:37;;;;;;;16.27;13.73;;;4.90;1.00;5.40;101800.00;;;;5022482;28;20468;-82
2022/01/17 03:23:08;;;;;;;15.03;12.23;;;4.90;1.00;5.30;101785.00;;;;5022658;28;20481;-83
2022/01/17 03:25:37;;;;;;;16.17;12.90;;;4.80;1.00;5.30;67430.00;;;;5019877;28;20530;-82
2022/01/17 03:28:06;;;;;;;16.70;14.23;;;4.80;1.00;5.30;101786.00;;;;5020073;28;21399;-81
2022/01/17 03:30:34;;;;;;;18.63;14.70;;;4.80;1.00;5.30;67441.00;;;;5020958;28;20453;-82
2022/01/17 03:33:06;;;;;;;16.77;11.97;;;4.90;1.00;5.40;101816.00;;;;5036770;28;21255;-82
2022/01/17 03:35:36;;;;;;;17.30;12.70;;;4.90;1.00;5.40;67443.00;;;;5039442;28;20468;-81
2022/01/17 03:38:06;;;;;;;17.13;12.30;;;4.90;1.00;5.40;101827.00;;;;5038792;28;20471;-80
2022/01/17 03:40:35;;;;;;;17.70;13.27;;;4.90;1.00;5.40;101835.00;;;;5023820;28;20469;-82
2022/01/17 03:43:04;;;;;;;16.53;13.17;;;4.90;1.00;5.40;67457.00;;;;5032165;28;20504;-82
2022/01/17 03:45:33;;;;;;;17.60;12.67;;;5.00;1.00;5.40;101800.00;;;;5020559;28;21352;-81
2022/01/17 03:48:01;;;;;;;14.00;11.80;;;4.90;1.00;5.40;67449.00;;;;5020582;28;20489;-83
2022/01/17 03:50:30;;;;;;;14.00;10.37;;;4.90;1.00;5.40;67441.00;;;;5017945;28;20456;-81
2022/01/17 03:52:58;;;;;;;15.77;11.93;;;4.90;1.00;5.30;67427.00;;;;5035191;28;21001;-83
2022/01/17 03:55:28;;;;;;;15.43;12.57;;;4.80;1.00;5.30;67427.00;;;;5020703;28;20457;-82
2022/01/17 03:57:57;;;;;;;15.33;12.30;;;4.80;1.00;5.30;67414.00;;;;5039531;28;20456;-83
2022/01/17 04:00:29;;;;;;;14.50;11.30;;;4.80;1.00;5.30;67420.00;;;;5023832;28;20449;-81
2022/01/17 04:02:58;;;;;;;12.03;10.37;;;4.80;1.00;5.20;101822.00;;;;5027935;28;20462;-83
2022/01/17 04:05:27;;;;;;;16.93;12.23;;;4.80;1.00;5.20;67410.00;;;;5019909;28;20453;-82
2022/01/17 04:07:55;;;;;;;14.03;11.60;;;4.70;1.00;5.20;101812.00;;;;5050373;28;20481;-82
2022/01/17 04:10:24;;;;;;;15.30;11.10;;;4.80;1.00;5.30;101837.00;;;;5041601;28;20481;-83
2022/01/17 04:13:00;;;;;;;14.00;12.03;;;4.80;1.00;52.70;158935.00;;;;5039844;28;20479;-80
2022/01/17 04:15:29;;;;;;;14.97;11.60;;;4.80;1.00;5.30;67432.00;;;;5034671;28;20470;-82
2022/01/17 04:17:58;;;;;;;13.03;11.17;;;4.80;1.00;5.30;101841.00;;;;5025176;28;20484;-82
2022/01/17 04:20:28;;;;;;;13.80;11.67;;;4.80;1.00;5.30;101834.00;;;;5027948;28;20461;-82
2022/01/17 04:22:58;;;;;;;13.40;10.93;;;4.80;1.00;5.30;101856.00;;;;5025951;28;20466;-80
2022/01/17 04:25:30;;;;;;;13.37;11.97;;;4.80;1.00;5.30;101861.00;;;;5021211;28;20453;-81
2022/01/17 04:28:02;;;;;;;14.77;11.93;;;4.80;1.00;5.40;101862.00;;;;5040341;28;20504;-83
2022/01/17 04:30:31;;;;;;;12.03;10.17;;;4.90;1.00;217.30;159002.00;;;;5025282;28;20465;-83
2022/01/17 04:33:00;;;;;;;15.03;11.63;;;4.90;1.00;5.40;101870.00;;;;5024839;28;20489;-82
2022/01/17 04:35:30;;;;;;;13.60;10.47;;;4.90;1.00;5.40;101844.00;;;;5016037;28;20467;-80
2022/01/17 04:38:01;;;;;;;15.03;11.87;;;4.90;1.00;5.40;101845.00;;;;5037998;28;20461;-81
2022/01/17 04:40:36;;;;;;;13.10;11.10;;;4.90;1.00;5.40;101831.00;;;;5018501;28;20458;-80
2022/01/17 04:43:15;;;;;;;16.20;11.80;;;4.90;1.00;5.30;67436.00;;;;5025899;28;20480;-81
2022/01/17 04:45:44;;;;;;;13.60;12.20;;;4.90;1.00;5.40;101841.00;;;;5048892;28;20454;-80
2022/01/17 04:48:13;;;;;;;14.83;11.33;;;5.10;1.00;5.40;101819.00;;;;5034584;28;20575;-82
2022/01/17 04:50:41;;;;;;;13.73;11.00;;;5.00;1.00;5.30;101818.00;;;;5037024;28;20457;-82
2022/01/17 04:53:12;;;;;;;13.50;9.53;;;4.90;1.00;52.70;158982.00;;;;5025810;28;21414;-83
2022/01/17 04:55:40;;;;;;;15.43;11.43;;;4.90;1.00;5.30;67441.00;;;;5024475;28;20472;-83
2022/01/17 04:58:10;;;;;;;12.90;10.37;;;5.10;1.00;5.30;67441.00;;;;5029410;28;20470;-80
2022/01/17 05:00:46;;;;;;;15.30;11.00;;;4.90;1.00;5.40;101805.00;;;;5039385;28;20461;-81
2022/01/17 05:03:15;;;;;;;13.93;10.53;;;5.00;1.00;5.40;101804.00;;;;5035926;28;20473;-81
2022/01/17 05:05:44;;;;;;;14.30;11.10;;;5.00;1.00;5.50;67460.00;;;;5042409;28;20835;-83
2022/01/17 05:08:12;;;;;;;13.40;10.10;;;5.00;1.00;5.40;101843.00;;;;5035439;28;20479;-82
2022/01/17 05:10:42;;;;;;;14.23;10.70;;;5.00;1.00;5.40;101850.00;;;;5038168;28;20982;-83
2022/01/17 05:13:17;;;;;;;11.40;9.50;;;5.00;1.00;5.40;101845.00;;;;5046019;28;20489;-84
2022/01/17 05:15:49;;;;;;;11.10;9.00;;;5.00;1.00;5.40;101863.00;;;;5053339;28;20566;-82
2022/01/17 05:19:47;;;;;;;13.17;10.80;;;4.90;1.00;5.50;101765.00;;;;5044764;28;20475;-82
2022/01/17 05:21:15;;;;;;;14.00;9.83;;;5.10;1.00;5.50;101861.00;;;;5040010;28;20476;-82
2022/01/17 05:23:43;;;;;;;13.57;11.03;;;5.20;1.00;5.60;101863.00;;;;5025596;28;20456;-82
2022/01/17 05:26:11;;;;;;;11.70;9.87;;;5.10;1.00;5.60;101870.00;;;;5024294;28;20831;-82
2022/01/17 05:28:41;;;;;;;14.10;10.73;;;5.10;1.00;217.30;159092.00;;;;5024937;28;20472;-82
2022/01/17 05:31:09;;;;;;;12.13;10.00;;;5.20;1.00;5.60;101875.00;;;;5023570;28;20459;-82
2022/01/17 05:33:38;;;;;;;12.07;9.37;;;5.20;1.00;5.60;67504.00;;;;5025651;28;20532;-81
2022/01/17 05:36:06;;;;;;;11.47;9.93;;;5.20;1.00;5.60;67504.00;;;;5040645;28;20850;-81
2022/01/17 05:38:35;;;;;;;10.67;9.53;;;5.20;1.00;5.70;67507.00;;;;5024435;28;20458;-82
2022/01/17 05:41:03;;;;;;;12.07;10.10;;;5.20;1.00;5.60;67507.00;;;;5029066;28;20469;-82
2022/01/17 05:43:32;;;;;;;11.30;8.10;;;5.20;1.00;5.60;67500.00;;;;5028892;28;20452;-82
2022/01/17 05:46:01;;;;;;;10.07;7.93;;;5.20;1.00;217.30;159054.00;;;;5031262;28;21140;-81
2022/01/17 05:48:30;;;;;;;12.43;9.80;;;5.10;1.00;5.50;101799.00;;;;5033235;28;20480;-81
2022/01/17 05:50:58;;;;;;;9.90;8.40;;;5.00;1.00;5.40;101816.00;;;;5034038;28;20863;-82
2022/01/17 05:53:27;;;;;;;10.90;9.17;;;5.00;1.00;5.40;67460.00;;;;5044657;28;20503;-80
2022/01/17 05:55:56;;;;;;;11.57;9.43;;;5.00;1.00;5.50;67466.00;;;;5042836;28;20515;-83
2022/01/17 05:58:24;;;;;;;11.30;9.43;;;5.00;1.00;52.70;159054.00;;;;5046461;28;20463;-82
2022/01/17 06:00:53;;;;;;;12.00;9.40;;;5.00;1.00;5.50;67479.00;;;;5020530;28;20456;-84
2022/01/17 06:03:23;;;;;;;14.30;9.17;;;5.00;1.00;217.30;159060.00;;;;5021501;28;20470;-84
2022/01/17 06:05:51;;;;;;;11.70;9.13;;;5.10;1.00;5.60;67504.00;;;;5043388;28;20463;-81
2022/01/17 06:08:19;;;;;;;11.50;10.03;;;5.20;1.00;5.70;67507.00;;;;5030843;28;20488;-80
2022/01/17 06:10:47;;;;;;;10.37;8.70;;;5.20;1.00;5.60;67504.00;;;;5042781;28;20548;-82
2022/01/17 06:13:16;;;;;;;11.63;9.27;;;5.20;1.00;217.30;159092.00;;;;5059486;28;20500;-80
2022/01/17 06:15:44;;;;;;;11.10;9.40;;;5.10;1.00;5.70;67507.00;;;;5051505;28;20437;-81
2022/01/17 06:18:12;;;;;;;10.80;9.00;;;5.10;1.00;5.70;67513.00;;;;5035486;28;20527;-83
2022/01/17 06:20:42;;;;;;;12.50;9.60;;;5.20;1.00;5.60;67502.00;;;;5026915;28;20466;-82
2022/01/17 06:23:10;;;;;;;12.00;8.80;;;5.20;1.00;217.30;159086.00;;;;5026649;28;20482;-83
2022/01/17 06:25:39;;;;;;;11.00;9.43;;;5.20;1.00;5.60;67498.00;;;;5025555;28;20461;-82
2022/01/17 06:28:07;;;;;;;11.90;9.20;;;5.10;1.00;5.60;67498.00;;;;5019743;28;20466;-82
2022/01/17 06:30:36;;;;;;;10.20;8.90;;;5.10;1.00;217.30;159096.00;;;;5019694;28;20861;-81
2022/01/17 06:33:05;;;;;;;10.83;8.23;;;5.40;1.00;5.60;67502.00;;;;5024005;28;20480;-81
2022/01/17 06:35:33;;;;;;;10.13;8.77;;;5.20;1.00;5.60;67490.00;;;;5020770;28;20983;-82
2022/01/17 06:38:03;;;;;;;10.43;8.10;;;5.10;1.00;5.60;67490.00;;;;5041712;28;20517;-82
2022/01/17 06:40:31;;;;;;;10.83;9.17;;;5.10;1.00;217.30;159080.00;;;;5027730;28;20525;-82
2022/01/17 06:43:00;;;;;;;10.20;8.40;;;5.10;1.00;5.60;67504.00;;;;5032522;28;20473;-82
2022/01/17 06:45:28;;;;;;;10.93;8.20;;;5.20;1.00;5.60;67498.00;;;;5030616;28;20827;-82
2022/01/17 06:47:56;;;;;;;10.40;7.90;;;5.20;1.00;217.30;159096.00;;;;5028727;28;20460;-82
2022/01/17 06:50:25;;;;;;;10.10;8.33;;;5.20;1.00;5.60;67506.00;;;;5032783;28;20473;-81
2022/01/17 06:52:53;;;;;;;13.53;9.27;;;5.20;1.00;5.70;67515.00;;;;5031418;28;20481;-81
2022/01/17 06:55:23;;;;;;;11.43;8.30;;;5.30;1.00;5.80;67520.00;;;;5035870;28;20477;-81
2022/01/17 06:57:51;;;;;;;10.83;8.07;;;5.30;1.00;5.70;67530.00;;;;5049996;28;20558;-81
2022/01/17 07:00:20;;;;;;;9.80;8.30;;;5.30;1.00;5.80;67524.00;;;;5034744;28;20470;-80
2022/01/17 07:02:53;;;;;;;11.63;8.80;;;5.30;1.00;52.70;159159.00;;;;5033841;28;20508;-81
2022/01/17 07:05:22;;;;;;;9.30;7.40;;;5.30;1.00;5.80;67531.00;;;;5032610;28;20446;-81
2022/01/17 07:07:50;;;;;;;11.17;9.43;;;5.30;1.00;5.80;67536.00;;;;5033091;28;20472;-82
2022/01/17 07:10:18;;;;;;;9.30;7.93;;;5.40;1.00;5.80;67536.00;;;;5032330;28;20469;-82
2022/01/17 07:12:48;;;;;;;9.93;8.40;;;5.50;1.00;5.80;101904.00;;;;5031623;28;20480;-80
2022/01/17 07:15:16;;;;;;;9.13;8.13;;;5.40;1.00;5.90;101906.00;;;;5034155;28;20446;-81
2022/01/17 07:17:45;;;;;;;10.70;7.97;;;5.40;1.00;5.40;67539.00;;;;5056567;28;20453;-81
2022/01/17 07:20:13;;;;;;;9.67;8.07;;;5.30;1.00;5.70;67539.00;;;;5034430;28;20477;-83
2022/01/17 07:22:42;;;;;;;10.70;7.57;;;5.40;1.00;5.90;101948.00;;;;5038075;28;20481;-81
2022/01/17 07:25:11;;;;;;;8.97;7.70;;;5.40;1.00;5.90;67548.00;;;;5033882;28;20469;-81
2022/01/17 07:27:42;;;;;;;9.40;8.30;;;5.40;1.00;5.80;67544.00;;;;5037968;28;20492;-81
2022/01/17 07:30:13;;;;;;;10.23;8.57;;;5.40;1.00;5.80;101897.00;;;;5042682;28;20480;-82
2022/01/17 07:32:41;;;;;;;11.00;8.60;;;5.30;1.00;5.80;101914.00;;;;5038081;28;20571;-82
2022/01/17 07:35:11;;;;;;;10.97;9.20;;;5.30;1.00;5.80;101926.00;;;;5059165;28;20453;-82
2022/01/17 07:37:39;;;;;;;8.50;7.60;;;5.30;1.00;5.80;67548.00;;;;5037064;28;20556;-82
2022/01/17 07:40:10;;;;;;;9.50;8.00;;;5.40;1.00;5.90;101914.00;;;;5051143;28;20456;-81
2022/01/17 07:42:38;;;;;;;9.30;7.30;;;5.40;1.00;5.80;101908.00;;;;5058734;28;20484;-84
2022/01/17 07:45:15;;;;;;;10.40;8.37;;;5.40;1.00;5.80;101917.00;;;;5043768;28;20469;-84
2022/01/17 07:47:56;;;;;;;11.13;8.47;;;5.70;1.00;5.90;101924.00;;;;5040212;28;20464;-81
2022/01/17 07:50:26;;;;;;;9.20;7.80;;;5.50;1.00;6.00;101921.00;;;;5024624;28;20474;-82
2022/01/17 07:52:55;;;;;;;13.00;9.00;;;5.60;1.00;5.90;67568.00;;;;5023037;28;20488;-81
2022/01/17 07:55:23;;;;;;;9.83;7.83;;;5.50;1.00;5.90;101912.00;;;;5020657;28;20457;-81
2022/01/17 07:57:55;;;;;;;10.47;8.33;;;5.40;1.00;217.30;159191.00;;;;5022942;28;20461;-84
2022/01/17 08:00:25;;;;;;;9.70;8.00;;;5.50;1.00;5.90;101909.00;;;;5019025;28;21025;-85
2022/01/17 08:02:56;;;;;;;9.70;8.10;;;5.60;1.00;6.00;101923.00;;;;5021453;28;20473;-81
2022/01/17 08:05:26;;;;;;;9.87;7.90;;;5.50;1.00;6.00;67573.00;;;;5020764;28;20548;-84
2022/01/17 08:07:54;;;;;;;10.80;8.10;;;5.50;1.00;5.90;67573.00;;;;5021819;28;20552;-82
2022/01/17 08:10:22;;;;;;;9.50;8.07;;;5.90;1.00;217.30;159274.00;;;;5021636;28;20597;-83
2022/01/17 08:12:51;;;;;;;8.63;7.70;;;5.50;1.00;6.00;67601.00;;;;5018914;28;20472;-82
2022/01/17 08:15:19;;;;;;;11.60;8.30;;;5.60;1.00;217.30;159274.00;;;;5019144;28;20468;-83
2022/01/17 08:17:49;;;;;;;9.90;7.97;;;5.80;1.00;6.10;67609.00;;;;5018956;28;20457;-82
2022/01/17 08:20:19;;;;;;;8.17;7.13;;;5.60;1.00;6.10;101936.00;;;;5019360;28;20699;-82
2022/01/17 08:22:48;;;;;;;8.77;7.23;;;5.60;1.00;6.10;101964.00;;;;5017959;28;20518;-82
2022/01/17 08:25:17;;;;;;;8.90;7.47;;;5.80;1.00;6.20;101950.00;;;;5020363;28;20527;-80
2022/01/17 08:27:46;;;;;;;9.53;8.37;;;5.70;1.00;6.20;101971.00;;;;5022765;28;20455;-81
2022/01/17 08:30:14;;;;;;;9.90;7.73;;;5.80;1.00;6.30;101959.00;;;;5023271;28;20477;-83
2022/01/17 08:33:05;;;;;;;8.63;7.70;;;5.90;1.00;6.40;67668.00;;;;5020584;28;20473;-81
2022/01/17 08:35:33;;;;;;;8.30;7.13;;;5.90;1.00;6.40;101925.00;;;;5020008;28;20556;-80
2022/01/17 08:38:02;;;;;;;9.43;8.40;;;5.90;1.00;6.40;67685.00;;;;5021722;28;20465;-81
2022/01/17 08:40:30;;;;;;;8.83;7.13;;;6.00;1.00;6.40;67676.00;;;;5019189;28;20464;-82
2022/01/17 08:42:58;;;;;;;9.77;8.53;;;5.90;1.00;6.40;67676.00;;;;5022752;28;20477;-81
2022/01/17 08:45:29;;;;;;;11.73;7.70;;;5.90;1.00;6.40;67674.00;;;;5043467;28;20499;-81
2022/01/17 08:48:12;;;;;;;8.87;7.90;;;5.90;1.00;6.30;101906.00;;;;5021159;28;20528;-80
2022/01/17 08:50:42;;;;;;;10.80;8.50;;;5.90;1.00;6.30;101918.00;;;;5028502;28;20462;-83
2022/01/17 08:53:13;;;;;;;8.13;6.40;;;5.80;1.00;6.30;101911.00;;;;5029866;28;20477;-81
2022/01/17 08:55:44;;;;;;;10.90;7.60;;;5.90;1.00;52.70;159363.00;;;;5042118;28;20454;-82
2022/01/17 08:58:13;;;;;;;12.80;7.90;;;5.80;1.00;52.70;159353.00;;;;5042304;28;20518;-86
2022/01/17 09:00:42;;;;;;;8.43;7.20;;;5.80;1.00;6.30;101912.00;;;;5046950;28;20441;-83
2022/01/17 09:03:28;;;;;;;10.17;7.80;;;5.80;1.00;6.30;67651.00;;;;5066309;28;20464;-83
2022/01/17 09:05:56;;;;;;;11.27;8.87;;;5.80;1.00;217.30;159411.00;;;;5066782;28;20545;-84
2022/01/17 09:08:25;;;;;;;10.23;8.70;;;5.90;1.00;6.30;67659.00;;;;5046664;28;20503;-84
2022/01/17 09:10:55;;;;;;;10.10;8.13;;;6.00;1.00;6.30;67663.00;;;;5036790;28;20489;-79
2022/01/17 09:13:24;;;;;;;10.20;8.77;;;5.90;1.00;6.40;67668.00;;;;5025180;28;20491;-85
2022/01/17 09:15:53;;;;;;;10.63;8.63;;;6.00;1.00;6.30;67668.00;;;;5040173;28;20461;-80
2022/01/17 09:18:24;;;;;;;10.87;8.57;;;5.90;1.00;217.30;159437.00;;;;5024376;28;20962;-83
2022/01/17 09:20:54;;;;;;;10.80;8.60;;;6.00;1.00;6.50;67702.00;;;;5041558;28;20472;-83
2022/01/17 09:23:23;;;;;;;10.23;8.40;;;6.10;1.00;6.60;67712.00;;;;5042738;28;20473;-84
2022/01/17 09:25:52;;;;;;;11.43;8.53;;;6.20;1.00;217.30;159556.00;;;;5044822;28;20434;-83
2022/01/17 09:28:21;;;;;;;12.00;8.40;;;6.30;1.00;6.70;101967.00;;;;5044582;28;20453;-85
2022/01/17 09:30:51;;;;;;;10.23;7.80;;;6.30;1.00;6.70;67748.00;;;;5050937;28;20484;-82
2022/01/17 09:33:19;;;;;;;8.60;7.70;;;6.30;1.00;52.70;159599.00;;;;5048975;28;20602;-81
2022/01/17 09:35:49;;;;;;;9.53;6.47;;;6.50;1.00;6.80;67774.00;;;;5047032;28;20464;-83
2022/01/17 09:38:19;;;;;;;12.50;8.20;;;6.40;1.00;6.80;67762.00;;;;5041132;28;20460;-82
2022/01/17 09:40:47;;;;;;;10.73;8.40;;;6.40;1.00;6.90;67786.00;;;;5035492;28;20485;-80
2022/01/17 09:43:36;;;;;;;9.93;8.50;;;6.50;1.00;7.00;101991.00;;;;5032238;28;20460;-82
2022/01/17 09:46:05;;;;;;;12.20;8.87;;;6.60;1.00;7.00;102003.00;;;;5035310;28;20569;-82
2022/01/17 09:48:39;;;;;;;10.37;8.33;;;6.60;1.00;7.00;67820.00;;;;5044955;28;20452;-82
2022/01/17 09:51:18;;;;;;;10.10;7.70;;;6.70;1.00;7.30;67864.00;;;;5046416;28;20469;-83
2022/01/17 09:53:52;;;;;;;10.60;8.07;;;6.70;1.00;217.30;159813.00;;;;5048579;28;20489;-82
2022/01/17 09:56:21;;;;;;;9.20;7.30;;;6.90;1.00;7.30;67881.00;;;;5031187;28;20471;-83
2022/01/17 09:58:51;;;;;;;9.40;7.67;;;6.90;1.00;7.40;101986.00;;;;5034984;28;20467;-81
2022/01/17 10:01:20;;;;;;;10.07;8.27;;;7.00;1.00;7.50;67924.00;;;;5033155;28;20540;-82
2022/01/17 10:03:49;;;;;;;14.47;7.50;;;7.00;1.00;52.70;159944.00;;;;5027349;28;21538;-82
2022/01/17 10:06:17;;;;;;;11.30;8.20;;;7.20;1.00;7.60;101999.00;;;;5028740;28;21059;-82
2022/01/17 10:08:47;;;;;;;11.07;7.43;;;7.20;1.00;7.60;101987.00;;;;5027751;28;20458;-83
2022/01/17 10:11:16;;;;;;;9.60;7.00;;;7.20;1.00;7.60;101997.00;;;;5028879;28;20567;-81
2022/01/17 10:13:47;;;;;;;9.00;6.70;;;7.20;1.00;7.70;102000.00;;;;5026852;28;21310;-79
2022/01/17 10:16:19;;;;;;;9.07;7.53;;;7.30;1.00;217.30;159992.00;;;;5032192;28;20535;-82
2022/01/17 10:18:54;;;;;;;12.07;7.80;;;7.40;1.00;7.60;101995.00;;;;5025358;28;20534;-81
2022/01/17 10:21:31;;;;;;;8.77;7.23;;;7.20;1.00;7.50;101997.00;;;;5048371;28;20521;-80
2022/01/17 10:24:17;;;;;;;8.03;6.60;;;7.20;1.00;7.50;67936.00;;;;5028660;28;20484;-81
2022/01/17 10:27:07;;;;;;;9.33;6.70;;;7.10;1.00;7.50;67913.00;;;;5046319;28;20457;-81
2022/01/17 10:30:08;;;;;;;8.63;6.90;;;7.10;1.00;217.30;159861.00;;;;5028430;28;20557;-82
2022/01/17 10:35:25;;;;;;;9.80;7.40;;;7.20;1.00;-80.10;213236.00;;;;5036354;28;21143;-80
2022/01/17 10:38:06;;;;;;;10.10;6.73;;;7.00;1.00;7.30;67881.00;;;;5036641;28;20457;-82
2022/01/17 10:40:39;;;;;;;9.43;6.87;;;6.90;1.00;217.30;159845.00;;;;5025888;28;20461;-83
2022/01/17 10:43:21;;;;;;;9.50;7.20;;;6.90;1.00;-80.20;159823.00;;;;5021729;28;20925;-81
2022/01/17 10:45:50;;;;;;;9.83;5.90;;;7.00;1.00;7.30;67877.00;;;;5026019;28;20533;-82
2022/01/17 10:48:19;;;;;;;7.33;6.37;;;6.90;1.00;7.30;67878.00;;;;5023550;28;20461;-81
2022/01/17 10:50:50;;;;;;;9.23;7.40;;;6.90;1.00;52.70;159865.00;;;;5022602;28;20549;-84
2022/01/17 10:53:19;;;;;;;8.60;6.20;;;7.00;1.00;7.40;67907.00;;;;5019590;28;20473;-82
2022/01/17 10:55:52;;;;;;;9.67;6.93;;;7.00;1.00;7.50;101979.00;;;;5018433;28;20517;-81
2022/01/17 10:58:25;;;;;;;8.07;6.00;;;7.00;1.00;7.60;101978.00;;;;5017790;28;20461;-81
2022/01/17 11:00:58;;;;;;;10.60;6.17;;;7.10;1.00;7.60;101997.00;;;;5034660;28;20491;-82
2022/01/17 11:03:29;;;;;;;11.00;7.20;;;7.20;1.00;7.70;101966.00;;;;5024062;28;20480;-81
2022/01/17 11:06:02;;;;;;;12.27;6.60;;;7.20;1.00;7.90;101967.00;;;;5029420;28;20568;-82
2022/01/17 11:08:32;;;;;;;14.17;6.57;;;7.50;1.00;8.10;101956.00;;;;5034466;28;20457;-81
2022/01/17 11:11:07;;;;;;;7.13;5.83;;;7.60;1.00;8.20;101965.00;;;;5033155;28;21041;-81
2022/01/17 11:13:38;;;;;;;7.00;6.23;;;7.70;1.00;8.30;101968.00;;;;5039285;28;20466;-80
2022/01/17 11:16:11;;;;;;;7.70;5.50;;;7.90;1.00;8.70;101980.00;;;;5026551;28;20951;-82
2022/01/17 11:18:44;;;;;;;7.50;6.37;;;8.50;1.00;8.80;101985.00;;;;5028116;28;20809;-81
2022/01/17 11:21:17;;;;;;;6.50;5.50;;;8.50;1.00;9.20;102004.00;;;;5037945;28;20493;-83
2022/01/17 11:23:48;;;;;;;8.43;6.00;;;8.80;1.00;9.50;102026.00;;;;5029194;28;21311;-80
2022/01/17 11:26:19;;;;;;;6.80;5.60;;;9.10;1.00;9.50;102010.00;;;;5041625;28;20524;-81